createdAt,value
2017-04-25T00:01:00.303Z,60.3
2017-04-25T00:02:10.639Z,60.69
2017-04-25T00:03:20.677Z,60.59
2017-04-25T00:04:31.033Z,60.49
2017-04-25T00:05:41.380Z,60.21
2017-04-25T00:06:51.726Z,60.3
2017-04-25T00:08:02.069Z,60.78
2017-04-25T00:09:12.129Z,60.4
2017-04-25T00:10:22.462Z,60.4
2017-04-25T00:11:32.483Z,60.21
2017-04-25T00:12:42.833Z,60.4
2017-04-25T00:13:53.186Z,60.3
2017-04-25T00:15:03.539Z,60.4
2017-04-25T00:16:13.888Z,60.59
2017-04-25T00:17:24.245Z,60.56
2017-04-25T00:18:33.673Z,60.02
2017-04-25T00:19:44.016Z,60.4
2017-04-25T00:20:54.382Z,60.27
2017-04-25T00:22:04.783Z,60.3
2017-04-25T00:23:14.829Z,60.21
2017-04-25T00:24:25.168Z,60.27
2017-04-25T00:25:35.522Z,59.99
2017-04-25T00:26:45.882Z,60.08
2017-04-25T00:27:56.228Z,60.4
2017-04-25T00:29:06.582Z,60.37
2017-04-25T00:30:16.910Z,60.37
2017-04-25T00:31:26.935Z,60.56
2017-04-25T00:32:37.275Z,60.66
2017-04-25T00:33:47.299Z,60.37
2017-04-25T00:34:57.638Z,60.37
2017-04-25T00:36:07.994Z,60.27
2017-04-25T00:37:18.335Z,60.27
2017-04-25T00:38:28.367Z,60.18
2017-04-25T00:39:38.712Z,60.18
2017-04-25T00:40:48.743Z,60.27
2017-04-25T00:41:59.081Z,60.37
2017-04-25T00:43:09.417Z,60.56
2017-04-25T00:44:19.448Z,60.18
2017-04-25T00:45:29.783Z,60.27
2017-04-25T00:46:40.119Z,60.37
2017-04-25T00:47:50.151Z,60.66
2017-04-25T00:49:00.506Z,60.18
2017-04-25T00:50:10.891Z,60.37
2017-04-25T00:51:21.246Z,60.27
2017-04-25T00:52:31.578Z,60.37
2017-04-25T00:53:41.921Z,60.08
2017-04-25T00:54:51.962Z,60.27
2017-04-25T00:56:02.003Z,60.08
2017-04-25T00:57:12.060Z,60.46
2017-04-25T00:58:22.432Z,60.56
2017-04-25T00:59:32.782Z,60.56
2017-04-25T01:00:43.145Z,60.37
2017-04-25T01:01:53.207Z,60.18
2017-04-25T01:03:03.226Z,60.34
2017-04-25T01:04:13.256Z,60.34
2017-04-25T01:05:22.960Z,60.53
2017-04-25T01:06:33.304Z,60.56
2017-04-25T01:07:43.026Z,60.27
2017-04-25T01:08:53.383Z,60.24
2017-04-25T01:10:03.410Z,60.44
2017-04-25T01:11:13.745Z,60.72
2017-04-25T01:12:24.085Z,60.15
2017-04-25T01:13:34.430Z,60.34
2017-04-25T01:14:44.767Z,60.24
2017-04-25T01:15:55.111Z,60.34
2017-04-25T01:17:05.485Z,60.63
2017-04-25T01:18:15.837Z,60.15
2017-04-25T01:19:26.182Z,60.63
2017-04-25T01:20:36.537Z,60.63
2017-04-25T01:21:46.561Z,60.34
2017-04-25T01:22:56.616Z,60.05
2017-04-25T01:24:06.958Z,59.96
2017-04-25T01:25:16.993Z,60.24
2017-04-25T01:26:27.017Z,60.15
2017-04-25T01:27:37.050Z,60.15
2017-04-25T01:28:47.407Z,60.34
2017-04-25T01:29:57.457Z,60.15
2017-04-25T01:31:07.865Z,60.15
2017-04-25T01:32:18.223Z,60.24
2017-04-25T01:33:28.558Z,60.15
2017-04-25T01:34:38.610Z,60.24
2017-04-25T01:35:48.970Z,60.15
2017-04-25T01:36:59.297Z,60.15
2017-04-25T01:38:09.647Z,60.24
2017-04-25T01:39:19.668Z,60.15
2017-04-25T01:40:30.008Z,60.44
2017-04-25T01:41:40.356Z,60.05
2017-04-25T01:42:50.712Z,60.15
2017-04-25T01:44:01.068Z,60.15
2017-04-25T01:45:11.419Z,59.96
2017-04-25T01:46:21.777Z,60.05
2017-04-25T01:47:32.128Z,60.34
2017-04-25T01:48:42.478Z,59.96
2017-04-25T01:49:52.501Z,60.44
2017-04-25T01:51:02.855Z,59.96
2017-04-25T01:52:12.890Z,60.15
2017-04-25T01:53:23.232Z,60.15
2017-04-25T01:54:33.638Z,60.24
2017-04-25T01:55:43.965Z,60.05
2017-04-25T01:56:53.692Z,59.96
2017-04-25T01:58:04.038Z,60.24
2017-04-25T01:59:14.072Z,60.15
2017-04-25T02:00:24.143Z,60.15
2017-04-25T02:01:34.480Z,60.15
2017-04-25T02:02:44.828Z,60.34
2017-04-25T02:03:55.179Z,60.34
2017-04-25T02:05:05.210Z,60.44
2017-04-25T02:06:15.542Z,60.44
2017-04-25T02:07:25.894Z,60.44
2017-04-25T02:08:36.239Z,60.53
2017-04-25T02:09:46.581Z,60.53
2017-04-25T02:10:56.624Z,60.53
2017-04-25T02:12:06.659Z,60.24
2017-04-25T02:13:17.008Z,60.34
2017-04-25T02:14:27.357Z,60.53
2017-04-25T02:15:37.715Z,60.53
2017-04-25T02:16:48.050Z,60.53
2017-04-25T02:17:58.396Z,60.53
2017-04-25T02:19:08.759Z,59.86
2017-04-25T02:20:19.118Z,60.44
2017-04-25T02:21:28.837Z,60.24
2017-04-25T02:22:39.241Z,60.44
2017-04-25T02:23:49.267Z,60.44
2017-04-25T02:24:59.305Z,60.05
2017-04-25T02:26:09.366Z,59.77
2017-04-25T02:27:19.428Z,59.86
2017-04-25T02:28:29.474Z,59.86
2017-04-25T02:29:39.840Z,59.96
2017-04-25T02:30:50.218Z,59.96
2017-04-25T02:32:00.558Z,59.96
2017-04-25T02:33:10.576Z,59.86
2017-04-25T02:34:20.655Z,59.96
2017-04-25T02:35:31.010Z,59.86
2017-04-25T02:36:41.341Z,59.96
2017-04-25T02:37:51.669Z,59.96
2017-04-25T02:39:02.035Z,59.96
2017-04-25T02:40:12.056Z,59.86
2017-04-25T02:41:22.404Z,59.77
2017-04-25T02:42:32.759Z,60.24
2017-04-25T02:43:42.799Z,60.24
2017-04-25T02:44:53.139Z,60.34
2017-04-25T02:46:03.505Z,60.24
2017-04-25T02:47:13.551Z,60.34
2017-04-25T02:48:23.894Z,60.34
2017-04-25T02:49:34.236Z,60.34
2017-04-25T02:50:44.261Z,60.34
2017-04-25T02:51:54.613Z,60.34
2017-04-25T02:53:04.638Z,60.34
2017-04-25T02:54:14.673Z,60.63
2017-04-25T02:55:24.388Z,60.15
2017-04-25T02:56:34.754Z,60.44
2017-04-25T02:57:44.782Z,60.34
2017-04-25T02:58:55.170Z,60.34
2017-04-25T03:00:05.502Z,60.44
2017-04-25T03:01:15.535Z,60.34
2017-04-25T03:32:30.693Z,58.36
2017-04-25T03:33:41.026Z,59.02
2017-04-25T03:34:51.357Z,59.49
2017-04-25T03:36:01.714Z,60.35
2017-04-25T03:37:12.069Z,61.01
2017-04-25T03:38:22.404Z,61.2
2017-04-25T03:39:32.742Z,61.68
2017-04-25T03:40:42.774Z,61.68
2017-04-25T03:41:53.115Z,62.24
2017-04-25T03:43:03.471Z,62.08
2017-04-25T03:44:13.801Z,61.99
2017-04-25T03:45:24.164Z,61.99
2017-04-25T03:46:34.568Z,62.27
2017-04-25T03:47:44.920Z,61.36
2017-04-25T03:48:55.256Z,61.45
2017-04-25T03:50:05.658Z,61.83
2017-04-25T03:51:15.995Z,61.36
2017-04-25T03:52:26.608Z,61.2
2017-04-25T03:53:36.943Z,61.58
2017-04-25T03:54:46.977Z,61.39
2017-04-25T03:55:57.336Z,60.91
2017-04-25T03:57:07.677Z,61.1
2017-04-25T03:58:17.696Z,61.01
2017-04-25T03:59:27.419Z,60.44
2017-04-25T04:00:37.764Z,60.72
2017-04-25T04:01:48.111Z,60.38
2017-04-25T04:02:57.837Z,60.47
2017-04-25T04:04:08.180Z,60.09
2017-04-25T04:05:18.527Z,60.38
2017-04-25T04:06:28.562Z,60.38
2017-04-25T04:07:38.959Z,60.18
2017-04-25T04:08:49.334Z,59.9
2017-04-25T04:09:59.394Z,60.41
2017-04-25T04:11:09.423Z,60.5
2017-04-25T04:12:19.757Z,60.31
2017-04-25T04:13:30.137Z,60.41
2017-04-25T04:14:40.170Z,60.5
2017-04-25T04:15:50.520Z,60.31
2017-04-25T04:17:00.853Z,59.83
2017-04-25T04:18:11.190Z,59.93
2017-04-25T04:19:21.216Z,59.83
2017-04-25T04:20:31.549Z,59.58
2017-04-25T04:21:41.897Z,59.77
2017-04-25T04:22:52.242Z,59.39
2017-04-25T04:24:02.585Z,59.58
2017-04-25T04:25:12.916Z,59.48
2017-04-25T04:26:23.262Z,59.7
2017-04-25T04:27:33.613Z,59.51
2017-04-25T04:28:43.967Z,58.59
2017-04-25T04:29:54.321Z,57.67
2017-04-25T04:31:04.665Z,57.12
2017-04-25T04:32:15.006Z,57.22
2017-04-25T04:33:25.348Z,57.15
2017-04-25T04:34:35.400Z,57.43
2017-04-25T04:35:45.751Z,57.37
2017-04-25T04:36:56.108Z,57.21
2017-04-25T04:38:06.456Z,57.21
2017-04-25T04:39:16.186Z,57.31
2017-04-25T04:40:26.217Z,57.14
2017-04-25T04:41:36.565Z,57.43
2017-04-25T04:42:47.189Z,57.53
2017-04-25T04:43:57.215Z,57.36
2017-04-25T04:45:07.572Z,57.55
2017-04-25T04:46:17.620Z,57.87
2017-04-25T04:47:27.964Z,57.87
2017-04-25T04:48:38.351Z,57.87
2017-04-25T04:49:48.392Z,57.8
2017-04-25T04:50:58.421Z,57.7
2017-04-25T04:52:08.787Z,57.7
2017-04-25T04:53:19.132Z,57.83
2017-04-25T04:54:28.862Z,57.83
2017-04-25T04:55:38.892Z,58.31
2017-04-25T04:56:49.238Z,58.44
2017-04-25T04:57:59.578Z,58.62
2017-04-25T04:59:09.907Z,58.37
2017-04-25T05:00:19.941Z,57.98
2017-04-25T05:01:30.281Z,57.89
2017-04-25T05:02:40.626Z,58.17
2017-04-25T05:03:50.968Z,58.2
2017-04-25T05:05:01.039Z,58.3
2017-04-25T05:06:11.372Z,58.2
2017-04-25T05:07:21.416Z,58.11
2017-04-25T05:08:31.766Z,58.71
2017-04-25T05:09:41.825Z,58.62
2017-04-25T05:10:51.866Z,58.71
2017-04-25T05:12:02.210Z,58.52
2017-04-25T05:13:12.242Z,58.71
2017-04-25T05:14:22.268Z,58.62
2017-04-25T05:15:31.980Z,58.64
2017-04-25T05:16:42.354Z,58.74
2017-04-25T05:17:52.392Z,58.55
2017-04-25T05:19:02.451Z,59.12
2017-04-25T05:20:12.804Z,59.12
2017-04-25T05:21:23.153Z,59.22
2017-04-25T05:22:33.520Z,59.22
2017-04-25T05:23:43.883Z,59.12
2017-04-25T05:24:54.253Z,59.32
2017-04-25T05:26:04.310Z,59.03
2017-04-25T05:27:14.657Z,59.12
2017-04-25T05:28:24.074Z,59.12
2017-04-25T05:29:34.442Z,59.12
2017-04-25T05:30:44.786Z,59.16
2017-04-25T05:31:55.149Z,59.16
2017-04-25T05:33:05.510Z,59.16
2017-04-25T05:34:15.233Z,59.16
2017-04-25T05:35:25.583Z,58.99
2017-04-25T05:36:35.934Z,59.09
2017-04-25T05:37:46.272Z,58.89
2017-04-25T05:38:56.312Z,59.38
2017-04-25T05:40:06.656Z,58.99
2017-04-25T05:41:17.062Z,59.38
2017-04-25T05:42:27.100Z,59.19
2017-04-25T05:43:37.457Z,59.19
2017-04-25T05:44:47.818Z,59.09
2017-04-25T05:45:58.169Z,59.34
2017-04-25T05:47:08.214Z,59.83
2017-04-25T05:48:18.562Z,60.57
2017-04-25T05:49:28.608Z,61.18
2017-04-25T05:50:38.950Z,61.46
2017-04-25T05:51:49.297Z,62.1
2017-04-25T05:52:59.340Z,61.88
2017-04-25T05:54:09.687Z,61.88
2017-04-25T05:55:20.011Z,61.98
2017-04-25T05:56:30.380Z,61.88
2017-04-25T05:57:40.738Z,61.18
2017-04-25T05:58:50.759Z,61.6
2017-04-25T06:00:01.103Z,61.4
2017-04-25T06:01:11.452Z,61.5
2017-04-25T06:02:21.494Z,61.69
2017-04-25T06:03:31.851Z,61.66
2017-04-25T06:04:41.587Z,60.89
2017-04-25T06:05:51.322Z,60.99
2017-04-25T06:07:01.352Z,60.99
2017-04-25T06:08:11.383Z,60.7
2017-04-25T06:09:21.731Z,60.61
2017-04-25T06:10:32.078Z,60.41
2017-04-25T06:11:42.423Z,60.7
2017-04-25T06:13:12.015Z,60.61
2017-04-25T06:14:22.077Z,60.61
2017-04-25T06:15:32.452Z,60.54
2017-04-25T06:16:42.804Z,60.13
2017-04-25T06:17:52.833Z,60.7
2017-04-25T06:19:02.855Z,60.35
2017-04-25T06:20:12.905Z,59.97
2017-04-25T06:21:23.253Z,59.87
2017-04-25T06:22:33.598Z,60.16
2017-04-25T06:23:43.945Z,60.06
2017-04-25T06:24:54.286Z,60.06
2017-04-25T06:26:04.331Z,59.87
2017-04-25T06:27:14.683Z,59.97
2017-04-25T06:28:24.418Z,60.28
2017-04-25T06:29:34.142Z,60.28
2017-04-25T06:30:44.497Z,60.47
2017-04-25T06:31:54.847Z,60.38
2017-04-25T06:33:04.903Z,60.28
2017-04-25T06:34:14.626Z,60.09
2017-04-25T06:35:24.966Z,60.09
2017-04-25T06:36:35.338Z,60.09
2017-04-25T06:37:45.380Z,60
2017-04-25T06:38:55.736Z,59.9
2017-04-25T06:40:06.081Z,60.09
2017-04-25T06:41:16.423Z,60
2017-04-25T06:42:26.450Z,60.19
2017-04-25T06:43:37.051Z,59.9
2017-04-25T06:44:47.398Z,59.8
2017-04-25T06:45:57.751Z,60.09
2017-04-25T06:47:07.396Z,60.09
2017-04-25T06:48:17.761Z,60.03
2017-04-25T06:49:27.822Z,59.93
2017-04-25T06:50:38.168Z,60.12
2017-04-25T06:51:48.221Z,60.03
2017-04-25T06:52:58.269Z,60.12
2017-04-25T06:54:08.659Z,59.93
2017-04-25T06:55:18.708Z,59.83
2017-04-25T06:56:29.103Z,60.03
2017-04-25T06:57:39.154Z,60.05
2017-04-25T06:58:49.510Z,59.86
2017-04-25T06:59:59.855Z,59.96
2017-04-25T07:01:10.199Z,59.96
2017-04-25T07:02:20.546Z,59.86
2017-04-25T07:03:30.913Z,60.05
2017-04-25T07:04:40.636Z,59.96
2017-04-25T07:05:50.996Z,60.18
2017-04-25T07:07:01.342Z,60.05
2017-04-25T07:08:11.714Z,60.15
2017-04-25T07:09:22.054Z,60.18
2017-04-25T07:10:32.399Z,60.08
2017-04-25T07:11:42.434Z,60.85
2017-04-25T07:12:52.809Z,60.63
2017-04-25T07:14:03.149Z,60.44
2017-04-25T07:15:13.170Z,59.96
2017-04-25T07:16:23.203Z,60.57
2017-04-25T07:17:32.933Z,60.47
2017-04-25T07:18:43.305Z,60.38
2017-04-25T07:19:53.355Z,60.85
2017-04-25T07:21:03.387Z,60.57
2017-04-25T07:22:13.743Z,60.66
2017-04-25T07:23:24.089Z,60.57
2017-04-25T07:24:34.443Z,60.38
2017-04-25T07:25:44.804Z,60.31
2017-04-25T07:26:55.144Z,60.88
2017-04-25T07:28:05.503Z,60.69
2017-04-25T07:29:15.844Z,60.6
2017-04-25T07:30:25.880Z,60.69
2017-04-25T07:31:36.255Z,60.6
2017-04-25T07:32:46.290Z,60.21
2017-04-25T07:33:56.640Z,60.69
2017-04-25T07:35:06.980Z,60.34
2017-04-25T07:36:17.011Z,60.72
2017-04-25T07:37:27.371Z,60.34
2017-04-25T07:38:37.745Z,60.34
2017-04-25T07:39:48.077Z,60.24
2017-04-25T07:40:58.407Z,60.17
2017-04-25T07:42:08.449Z,60.17
2017-04-25T07:43:18.792Z,60.37
2017-04-25T07:44:28.828Z,60.17
2017-04-25T07:45:39.201Z,60.37
2017-04-25T07:46:49.532Z,60.17
2017-04-25T07:47:59.555Z,60.49
2017-04-25T07:49:09.911Z,60.3
2017-04-25T07:50:20.264Z,60.11
2017-04-25T07:51:30.297Z,60.49
2017-04-25T07:52:40.660Z,60.21
2017-04-25T07:53:50.684Z,60.3
2017-04-25T07:55:01.025Z,60.39
2017-04-25T07:56:11.377Z,60.14
2017-04-25T07:57:21.719Z,60.04
2017-04-25T07:58:32.085Z,60.04
2017-04-25T07:59:42.440Z,60.04
2017-04-25T08:00:52.465Z,60.04
2017-04-25T08:02:02.500Z,60.07
2017-04-25T08:03:12.865Z,60.36
2017-04-25T08:04:23.218Z,60.55
2017-04-25T08:05:33.256Z,60.55
2017-04-25T08:06:43.286Z,60.68
2017-04-25T08:07:53.334Z,60.3
2017-04-25T08:09:03.693Z,60.58
2017-04-25T08:10:14.063Z,60.49
2017-04-25T08:11:23.779Z,60.39
2017-04-25T08:12:33.860Z,60.03
2017-04-25T08:13:43.902Z,60.03
2017-04-25T08:14:53.624Z,59.84
2017-04-25T08:16:03.986Z,60.32
2017-04-25T08:17:14.345Z,60.32
2017-04-25T08:18:24.684Z,60.13
2017-04-25T08:19:35.019Z,60.06
2017-04-25T08:20:45.367Z,59.87
2017-04-25T08:21:55.416Z,59.48
2017-04-25T08:23:06.019Z,59.8
2017-04-25T08:24:16.377Z,59.61
2017-04-25T08:25:26.722Z,59.45
2017-04-25T08:26:37.063Z,59.35
2017-04-25T08:27:47.654Z,59.45
2017-04-25T08:28:57.794Z,59.77
2017-04-25T08:30:08.178Z,59.58
2017-04-25T08:31:18.235Z,59.77
2017-04-25T08:32:28.624Z,59.58
2017-04-25T08:33:39.001Z,59.41
2017-04-25T08:34:49.344Z,59.22
2017-04-25T08:35:58.771Z,59.89
2017-04-25T08:37:09.122Z,59.51
2017-04-25T08:38:19.483Z,59.15
2017-04-25T08:39:29.551Z,59.25
2017-04-25T08:40:39.897Z,59.44
2017-04-25T08:41:49.954Z,59.34
2017-04-25T08:42:59.999Z,59.34
2017-04-25T08:44:10.364Z,59.44
2017-04-25T08:45:20.421Z,59.63
2017-04-25T08:46:30.775Z,59.34
2017-04-25T08:47:41.127Z,59.92
2017-04-25T08:48:51.488Z,59.53
2017-04-25T08:50:01.846Z,59.63
2017-04-25T08:51:12.192Z,59.44
2017-04-25T08:52:22.554Z,59.44
2017-04-25T08:53:32.906Z,59.44
2017-04-25T08:54:43.261Z,59.47
2017-04-25T08:55:53.004Z,59.56
2017-04-25T08:57:03.379Z,59.86
2017-04-25T08:58:13.455Z,59.5
2017-04-25T08:59:23.495Z,59.79
2017-04-25T09:00:33.542Z,59.5
2017-04-25T09:01:43.896Z,59.69
2017-04-25T09:02:54.247Z,59.59
2017-04-25T09:04:03.980Z,59.66
2017-04-25T09:05:14.332Z,60.37
2017-04-25T09:06:24.674Z,60.34
2017-04-25T09:07:34.709Z,60.82
2017-04-25T09:08:44.775Z,60.69
2017-04-25T09:09:54.517Z,60.79
2017-04-25T09:11:04.565Z,60.44
2017-04-25T09:12:14.953Z,60.6
2017-04-25T09:13:25.318Z,60.89
2017-04-25T09:14:35.684Z,60.14
2017-04-25T09:15:46.038Z,60.63
2017-04-25T09:16:56.082Z,60.92
2017-04-25T09:18:06.127Z,60.24
2017-04-25T09:19:16.485Z,60.24
2017-04-25T09:20:26.517Z,60.44
2017-04-25T09:21:36.866Z,60.37
2017-04-25T09:22:46.592Z,60.66
2017-04-25T09:23:56.936Z,60.47
2017-04-25T09:25:06.991Z,60.37
2017-04-25T09:26:17.322Z,60.75
2017-04-25T09:27:27.050Z,60.95
2017-04-25T09:28:37.417Z,60.47
2017-04-25T09:29:47.759Z,60.95
2017-04-25T09:30:57.482Z,60.57
2017-04-25T09:32:07.841Z,60.47
2017-04-25T09:33:17.890Z,60.66
2017-04-25T09:34:27.636Z,60.57
2017-04-25T09:35:37.993Z,60.57
2017-04-25T09:36:48.344Z,60.75
2017-04-25T09:37:58.377Z,60.75
2017-04-25T09:39:08.737Z,60.57
2017-04-25T09:40:19.098Z,60.37
2017-04-25T09:41:29.455Z,60.4
2017-04-25T09:42:39.799Z,60.69
2017-04-25T09:43:49.523Z,60.5
2017-04-25T09:44:59.562Z,60.88
2017-04-25T09:46:09.914Z,60.5
2017-04-25T09:47:20.255Z,60.5
2017-04-25T09:48:30.616Z,60.69
2017-04-25T09:49:40.042Z,60.4
2017-04-25T09:50:50.399Z,60.59
2017-04-25T09:52:00.744Z,60.72
2017-04-25T09:53:11.225Z,60.24
2017-04-25T09:54:21.280Z,60.91
2017-04-25T09:55:31.635Z,60.91
2017-04-25T09:56:41.677Z,60.82
2017-04-25T09:57:52.036Z,60.27
2017-04-25T09:59:02.397Z,59.94
2017-04-25T10:00:12.441Z,60.07
2017-04-25T10:01:22.165Z,60.75
2017-04-25T10:02:32.518Z,60.94
2017-04-25T10:03:42.872Z,60.17
2017-04-25T10:04:53.231Z,60.94
2017-04-25T10:06:03.593Z,60.07
2017-04-25T10:07:13.663Z,60.85
2017-04-25T10:08:24.025Z,60.27
2017-04-25T10:09:34.387Z,60.94
2017-04-25T10:10:46.064Z,60.17
2017-04-25T10:11:56.416Z,60.65
2017-04-25T10:13:06.799Z,61.04
2017-04-25T10:14:17.203Z,60.46
2017-04-25T10:15:27.325Z,60.39
2017-04-25T10:16:37.708Z,60.3
2017-04-25T10:17:47.796Z,60.3
2017-04-25T10:18:58.358Z,60.49
2017-04-25T10:20:09.951Z,60.49
2017-04-25T10:21:20.955Z,60.49
2017-04-25T10:22:32.371Z,60.03
2017-04-25T10:23:44.273Z,59.94
2017-04-25T10:24:56.066Z,59.74
2017-04-25T10:26:07.615Z,59.97
2017-04-25T10:27:19.109Z,59.77
2017-04-25T10:28:29.483Z,60.74
2017-04-25T10:29:40.208Z,60.42
2017-04-25T10:30:51.834Z,60.91
2017-04-25T10:32:02.191Z,60.32
2017-04-25T10:33:12.240Z,60.52
2017-04-25T10:34:22.600Z,60.64
2017-04-25T10:35:32.659Z,60.45
2017-04-25T10:36:43.006Z,60.55
2017-04-25T10:37:53.368Z,60.55
2017-04-25T10:39:03.455Z,60.45
2017-04-25T10:40:13.837Z,60.35
2017-04-25T10:41:23.871Z,60.45
2017-04-25T10:42:34.221Z,60.55
2017-04-25T10:43:44.598Z,60.55
2017-04-25T10:44:55.014Z,60.45
2017-04-25T10:46:05.384Z,60.74
2017-04-25T10:47:15.442Z,60
2017-04-25T10:48:25.807Z,60.19
2017-04-25T10:49:36.185Z,60.28
2017-04-25T10:50:46.627Z,60.28
2017-04-25T10:51:56.693Z,59.64
2017-04-25T10:53:07.300Z,59.92
2017-04-25T10:54:17.377Z,59.74
2017-04-25T10:55:27.440Z,59.57
2017-04-25T10:56:37.574Z,59.76
2017-04-25T10:57:47.642Z,59.76
2017-04-25T10:58:58.038Z,59.76
2017-04-25T11:00:08.429Z,59.76
2017-04-25T11:01:18.851Z,59.95
2017-04-25T11:02:28.931Z,59.95
2017-04-25T11:03:39.317Z,59.99
2017-04-25T11:04:49.387Z,60.15
2017-04-25T11:05:59.769Z,60.54
2017-04-25T11:07:10.147Z,60.64
2017-04-25T11:08:20.545Z,60.54
2017-04-25T11:09:30.924Z,60.64
2017-04-25T11:10:40.997Z,60.44
2017-04-25T11:11:51.401Z,60.64
2017-04-25T11:13:01.470Z,60.54
2017-04-25T11:14:11.591Z,60.05
2017-04-25T11:15:21.658Z,60.25
2017-04-25T11:16:31.727Z,60.28
2017-04-25T11:17:41.790Z,60.44
2017-04-25T11:18:52.222Z,59.95
2017-04-25T11:20:02.618Z,60.05
2017-04-25T11:21:12.997Z,60.28
2017-04-25T11:22:23.396Z,60.05
2017-04-25T11:23:33.523Z,60.25
2017-04-25T11:24:43.918Z,60.28
2017-04-25T11:25:54.296Z,60.15
2017-04-25T11:27:04.691Z,60.08
2017-04-25T11:28:15.088Z,60.05
2017-04-25T11:29:25.216Z,59.79
2017-04-25T11:30:35.606Z,60.57
2017-04-25T11:31:45.974Z,60.83
2017-04-25T11:32:56.039Z,60.54
2017-04-25T11:34:06.434Z,60.86
2017-04-25T11:35:16.817Z,60.57
2017-04-25T11:36:27.207Z,60.67
2017-04-25T11:37:37.606Z,60.67
2017-04-25T11:38:48.042Z,60.67
2017-04-25T11:39:58.442Z,60.67
2017-04-25T11:41:08.835Z,60.57
2017-04-25T11:42:19.216Z,60.57
2017-04-25T11:43:29.602Z,60.89
2017-04-25T11:44:39.978Z,60.79
2017-04-25T11:45:50.025Z,60.79
2017-04-25T11:47:00.377Z,60.89
2017-04-25T11:48:10.749Z,60.79
2017-04-25T11:49:21.109Z,60.5
2017-04-25T11:50:31.161Z,60.5
2017-04-25T11:51:41.502Z,60.7
2017-04-25T11:52:51.854Z,60.7
2017-04-25T11:54:01.589Z,60.7
2017-04-25T11:55:11.974Z,60.99
2017-04-25T11:56:22.344Z,60.89
2017-04-25T11:57:32.704Z,60.89
2017-04-25T11:58:43.043Z,60.5
2017-04-25T11:59:53.085Z,60.6
2017-04-25T12:01:03.146Z,60.89
2017-04-25T12:02:13.514Z,60.6
2017-04-25T12:03:23.562Z,60.63
2017-04-25T12:04:33.606Z,60.63
2017-04-25T12:05:43.642Z,60.63
2017-04-25T12:06:53.686Z,60.92
2017-04-25T12:08:03.775Z,60.53
2017-04-25T12:09:13.827Z,60.53
2017-04-25T12:10:24.186Z,60.24
2017-04-25T12:11:34.557Z,60.34
2017-04-25T12:12:44.294Z,60.24
2017-04-25T12:13:54.412Z,60.05
2017-04-25T12:15:04.767Z,60.53
2017-04-25T12:16:15.129Z,60.34
2017-04-25T12:17:25.244Z,60.05
2017-04-25T12:18:35.588Z,60.34
2017-04-25T12:19:45.954Z,60.27
2017-04-25T12:20:56.338Z,60.05
2017-04-25T12:22:06.707Z,60.53
2017-04-25T12:23:17.063Z,60.14
2017-04-25T12:24:27.125Z,60.17
2017-04-25T12:25:37.173Z,59.98
2017-04-25T12:26:47.531Z,60.66
2017-04-25T12:27:57.915Z,61.02
2017-04-25T12:29:07.971Z,60.72
2017-04-25T12:30:17.754Z,60.82
2017-04-25T12:31:27.793Z,61.02
2017-04-25T12:32:37.843Z,60.89
2017-04-25T12:33:48.201Z,60.63
2017-04-25T12:34:58.571Z,60.53
2017-04-25T12:36:08.617Z,59.95
2017-04-25T12:37:18.974Z,60.17
2017-04-25T12:38:29.012Z,59.62
2017-04-25T12:39:39.078Z,59.06
2017-04-25T12:40:49.462Z,58.22
2017-04-25T12:41:59.821Z,58.83
2017-04-25T12:43:10.194Z,58.31
2017-04-25T12:44:20.242Z,58.14
2017-04-25T12:45:30.602Z,57.88
2017-04-25T12:46:40.944Z,57.81
2017-04-25T12:47:50.981Z,57.81
2017-04-25T12:49:01.360Z,58.11
2017-04-25T12:50:11.718Z,57.91
2017-04-25T12:51:21.767Z,58.5
2017-04-25T12:52:32.125Z,58.69
2017-04-25T12:53:42.183Z,58.59
2017-04-25T12:54:52.236Z,58.2
2017-04-25T12:56:02.603Z,58.5
2017-04-25T12:57:12.644Z,58.03
2017-04-25T12:58:23.011Z,58.03
2017-04-25T12:59:33.432Z,57.97
2017-04-25T13:00:43.789Z,58.16
2017-04-25T13:01:54.193Z,58.36
2017-04-25T13:03:04.236Z,59.11
2017-04-25T13:04:14.602Z,58.89
2017-04-25T13:05:24.668Z,58.81
2017-04-25T13:06:35.032Z,58.52
2017-04-25T13:07:45.408Z,58.45
2017-04-25T13:08:55.468Z,58.55
2017-04-25T13:10:05.828Z,58.81
2017-04-25T13:11:16.184Z,59.01
2017-04-25T13:12:25.926Z,59.77
2017-04-25T13:13:35.985Z,59.67
2017-04-25T13:14:46.036Z,60.42
2017-04-25T13:15:56.088Z,60.13
2017-04-25T13:17:06.459Z,60.97
2017-04-25T13:18:16.820Z,61.33
2017-04-25T13:19:27.185Z,61.5
2017-04-25T13:20:37.540Z,61.18
2017-04-25T13:21:47.893Z,61.66
2017-04-25T13:22:58.229Z,61.63
2017-04-25T13:24:08.592Z,60.85
2017-04-25T13:25:18.995Z,60.78
2017-04-25T13:26:29.033Z,60.59
2017-04-25T13:27:39.390Z,60.33
2017-04-25T13:28:49.765Z,59.67
2017-04-25T13:29:59.806Z,58.44
2017-04-25T13:31:09.859Z,58.47
2017-04-25T13:32:19.909Z,58.56
2017-04-25T13:33:29.945Z,58.3
2017-04-25T13:34:39.675Z,58.4
2017-04-25T13:35:49.720Z,58.5
2017-04-25T13:37:00.069Z,58.79
2017-04-25T13:38:10.428Z,58.79
2017-04-25T13:39:20.777Z,58.98
2017-04-25T13:40:31.159Z,58.95
2017-04-25T13:41:41.548Z,59.54
2017-04-25T13:42:51.896Z,59.41
2017-04-25T13:44:02.262Z,59.61
2017-04-25T13:45:12.624Z,60
2017-04-25T13:46:22.348Z,60
2017-04-25T13:47:32.724Z,60
2017-04-25T13:48:43.078Z,60.75
2017-04-25T13:49:53.141Z,60.72
2017-04-25T13:51:03.493Z,61.6
2017-04-25T13:52:13.854Z,61.37
2017-04-25T13:53:24.204Z,61.63
2017-04-25T13:54:34.591Z,60.95
2017-04-25T13:55:44.969Z,61.15
2017-04-25T13:56:55.005Z,61.8
2017-04-25T13:58:05.378Z,61.47
2017-04-25T13:59:15.986Z,61.87
2017-04-25T14:00:26.036Z,61.96
2017-04-25T14:01:36.072Z,60.89
2017-04-25T14:02:46.489Z,60.72
2017-04-25T14:03:56.855Z,61.21
2017-04-25T14:05:07.199Z,60.34
2017-04-25T14:06:17.557Z,60.82
2017-04-25T14:07:27.919Z,60.79
2017-04-25T14:08:38.319Z,61.57
2017-04-25T14:09:48.408Z,60.67
2017-04-25T14:10:58.468Z,60.86
2017-04-25T14:12:08.545Z,60.86
2017-04-25T14:13:18.919Z,60.77
2017-04-25T14:14:28.977Z,60.77
2017-04-25T14:15:39.362Z,61.15
2017-04-25T14:16:49.416Z,60.96
2017-04-25T14:17:59.812Z,61.15
2017-04-25T14:19:09.856Z,60.86
2017-04-25T14:20:19.589Z,60.77
2017-04-25T14:21:29.964Z,61.25
2017-04-25T14:22:40.013Z,60.86
2017-04-25T14:23:50.075Z,60.96
2017-04-25T14:25:00.135Z,60.57
2017-04-25T14:26:10.209Z,60.96
2017-04-25T14:27:20.641Z,61.44
2017-04-25T14:28:31.013Z,61.41
2017-04-25T14:29:41.082Z,61.41
2017-04-25T14:30:51.453Z,61.58
2017-04-25T14:32:01.833Z,61.65
2017-04-25T14:33:12.210Z,61.65
2017-04-25T14:34:22.289Z,61.52
2017-04-25T14:35:32.647Z,60.77
2017-04-25T14:36:43.021Z,61
2017-04-25T14:37:53.382Z,61.38
2017-04-25T14:39:03.767Z,61.16
2017-04-25T14:40:13.824Z,61.74
2017-04-25T14:41:24.178Z,61.35
2017-04-25T14:42:33.914Z,61.07
2017-04-25T14:43:43.972Z,60.8
2017-04-25T14:44:54.333Z,60.31
2017-04-25T14:46:04.684Z,60.51
2017-04-25T14:47:15.047Z,61.12
2017-04-25T14:48:25.426Z,60.9
2017-04-25T14:49:35.785Z,61.02
2017-04-25T14:50:46.145Z,60.9
2017-04-25T14:51:55.869Z,60.8
2017-04-25T14:53:06.213Z,60.8
2017-04-25T14:54:16.613Z,60.71
2017-04-25T14:55:26.673Z,61
2017-04-25T14:56:37.015Z,61.29
2017-04-25T14:57:46.435Z,61.45
2017-04-25T14:58:56.797Z,61.35
2017-04-25T15:00:07.168Z,61.07
2017-04-25T15:01:17.247Z,61.74
2017-04-25T15:02:27.286Z,61.32
2017-04-25T15:03:37.323Z,61.81
2017-04-25T15:04:47.705Z,60.94
2017-04-25T15:05:57.753Z,60.74
2017-04-25T15:07:08.142Z,60.84
2017-04-25T15:08:18.498Z,60.68
2017-04-25T15:09:28.232Z,60.97
2017-04-25T15:10:38.601Z,60.97
2017-04-25T15:11:48.641Z,60.87
2017-04-25T15:12:58.998Z,60.77
2017-04-25T15:14:08.766Z,60.77
2017-04-25T15:15:18.816Z,60.87
2017-04-25T15:16:29.167Z,60.58
2017-04-25T15:17:39.221Z,60.77
2017-04-25T15:18:49.613Z,60.68
2017-04-25T15:19:59.975Z,60.77
2017-04-25T15:21:10.326Z,60.77
2017-04-25T15:22:20.678Z,61.07
2017-04-25T15:23:31.024Z,60.9
2017-04-25T15:24:41.073Z,60.61
2017-04-25T15:25:51.441Z,60.8
2017-04-25T15:27:01.795Z,60.71
2017-04-25T15:28:12.159Z,60.61
2017-04-25T15:29:22.519Z,60.8
2017-04-25T15:30:32.560Z,61.09
2017-04-25T15:31:42.919Z,60.87
2017-04-25T15:32:53.279Z,60.77
2017-04-25T15:34:03.620Z,60.87
2017-04-25T15:35:13.680Z,60.64
2017-04-25T15:36:23.727Z,60.64
2017-04-25T15:37:34.092Z,61.42
2017-04-25T15:38:44.144Z,60.94